sensor_id;sensor_type;location;lat;lon;timestamp;temperature;humidity
81842;DHT22;71284;50.918;7.092;2024-01-27T00:02:20;5.90;58.90
81842;DHT22;71284;50.918;7.092;2024-01-27T00:04:46;5.90;58.30
81842;DHT22;71284;50.918;7.092;2024-01-27T00:07:13;6.00;58.40
81842;DHT22;71284;50.918;7.092;2024-01-27T00:09:39;6.00;58.20
81842;DHT22;71284;50.918;7.092;2024-01-27T00:12:07;5.90;58.50
81842;DHT22;71284;50.918;7.092;2024-01-27T00:14:33;5.80;58.70
81842;DHT22;71284;50.918;7.092;2024-01-27T00:17:00;5.70;58.50
81842;DHT22;71284;50.918;7.092;2024-01-27T00:19:26;5.70;58.90
81842;DHT22;71284;50.918;7.092;2024-01-27T00:21:53;5.60;58.60
81842;DHT22;71284;50.918;7.092;2024-01-27T00:24:20;5.60;58.50
81842;DHT22;71284;50.918;7.092;2024-01-27T00:26:46;5.30;59.90
81842;DHT22;71284;50.918;7.092;2024-01-27T00:29:13;5.20;59.70
81842;DHT22;71284;50.918;7.092;2024-01-27T00:31:39;5.30;59.30
81842;DHT22;71284;50.918;7.092;2024-01-27T00:34:06;5.20;59.30
81842;DHT22;71284;50.918;7.092;2024-01-27T00:36:33;5.10;59.90
81842;DHT22;71284;50.918;7.092;2024-01-27T00:38:59;5.20;59.90
81842;DHT22;71284;50.918;7.092;2024-01-27T00:41:26;5.10;59.50
81842;DHT22;71284;50.918;7.092;2024-01-27T00:43:53;5.20;58.80
81842;DHT22;71284;50.918;7.092;2024-01-27T00:46:19;5.20;59.10
81842;DHT22;71284;50.918;7.092;2024-01-27T00:48:46;5.10;59.50
81842;DHT22;71284;50.918;7.092;2024-01-27T00:51:13;5.00;59.10
81842;DHT22;71284;50.918;7.092;2024-01-27T00:53:39;4.90;60.10
81842;DHT22;71284;50.918;7.092;2024-01-27T00:56:06;4.90;59.30
81842;DHT22;71284;50.918;7.092;2024-01-27T00:58:32;4.90;59.50
81842;DHT22;71284;50.918;7.092;2024-01-27T01:00:59;4.60;60.20
81842;DHT22;71284;50.918;7.092;2024-01-27T01:03:26;4.50;60.70
81842;DHT22;71284;50.918;7.092;2024-01-27T01:05:53;4.50;60.60
81842;DHT22;71284;50.918;7.092;2024-01-27T01:08:20;4.60;60.20
81842;DHT22;71284;50.918;7.092;2024-01-27T01:10:46;4.60;60.00
81842;DHT22;71284;50.918;7.092;2024-01-27T01:13:13;4.40;60.40
81842;DHT22;71284;50.918;7.092;2024-01-27T01:15:40;4.40;60.70
81842;DHT22;71284;50.918;7.092;2024-01-27T01:18:06;4.50;60.20
81842;DHT22;71284;50.918;7.092;2024-01-27T01:20:33;4.30;60.70
81842;DHT22;71284;50.918;7.092;2024-01-27T01:22:59;4.30;60.30
81842;DHT22;71284;50.918;7.092;2024-01-27T01:25:26;4.40;60.10
81842;DHT22;71284;50.918;7.092;2024-01-27T01:27:53;4.40;59.40
81842;DHT22;71284;50.918;7.092;2024-01-27T01:30:19;4.40;59.70
81842;DHT22;71284;50.918;7.092;2024-01-27T01:32:46;4.40;59.20
81842;DHT22;71284;50.918;7.092;2024-01-27T01:35:12;4.50;59.10
81842;DHT22;71284;50.918;7.092;2024-01-27T01:37:39;4.40;59.70
81842;DHT22;71284;50.918;7.092;2024-01-27T01:40:06;4.30;59.50
81842;DHT22;71284;50.918;7.092;2024-01-27T01:42:33;4.30;59.70
81842;DHT22;71284;50.918;7.092;2024-01-27T01:44:59;4.40;58.90
81842;DHT22;71284;50.918;7.092;2024-01-27T01:47:26;4.10;60.30
81842;DHT22;71284;50.918;7.092;2024-01-27T01:49:53;3.90;60.70
81842;DHT22;71284;50.918;7.092;2024-01-27T01:52:20;3.90;61.00
81842;DHT22;71284;50.918;7.092;2024-01-27T01:54:50;3.90;61.00
81842;DHT22;71284;50.918;7.092;2024-01-27T01:57:16;3.90;60.80
81842;DHT22;71284;50.918;7.092;2024-01-27T01:59:43;4.00;60.50
81842;DHT22;71284;50.918;7.092;2024-01-27T02:02:09;3.90;61.20
81842;DHT22;71284;50.918;7.092;2024-01-27T02:04:40;3.70;61.20
81842;DHT22;71284;50.918;7.092;2024-01-27T02:07:06;3.60;61.30
81842;DHT22;71284;50.918;7.092;2024-01-27T02:09:32;3.70;61.00
81842;DHT22;71284;50.918;7.092;2024-01-27T02:11:59;3.80;60.90
81842;DHT22;71284;50.918;7.092;2024-01-27T02:14:26;3.70;60.90
81842;DHT22;71284;50.918;7.092;2024-01-27T02:16:52;3.70;60.90
81842;DHT22;71284;50.918;7.092;2024-01-27T02:19:19;3.50;61.70
81842;DHT22;71284;50.918;7.092;2024-01-27T02:21:45;3.50;62.00
81842;DHT22;71284;50.918;7.092;2024-01-27T02:24:12;3.70;60.90
81842;DHT22;71284;50.918;7.092;2024-01-27T02:26:38;3.80;59.80
81842;DHT22;71284;50.918;7.092;2024-01-27T02:29:05;3.80;60.10
81842;DHT22;71284;50.918;7.092;2024-01-27T02:31:32;3.60;61.40
81842;DHT22;71284;50.918;7.092;2024-01-27T02:33:58;3.40;62.00
81842;DHT22;71284;50.918;7.092;2024-01-27T02:36:25;3.40;61.50
81842;DHT22;71284;50.918;7.092;2024-01-27T02:38:51;3.50;61.00
81842;DHT22;71284;50.918;7.092;2024-01-27T02:41:18;3.50;61.10
81842;DHT22;71284;50.918;7.092;2024-01-27T02:43:45;3.40;61.10
81842;DHT22;71284;50.918;7.092;2024-01-27T02:46:12;3.20;62.00
81842;DHT22;71284;50.918;7.092;2024-01-27T02:48:40;3.20;61.90
81842;DHT22;71284;50.918;7.092;2024-01-27T02:51:06;3.40;60.80
81842;DHT22;71284;50.918;7.092;2024-01-27T02:53:33;3.50;60.50
81842;DHT22;71284;50.918;7.092;2024-01-27T02:55:59;3.50;60.60
81842;DHT22;71284;50.918;7.092;2024-01-27T02:58:26;3.40;61.20
81842;DHT22;71284;50.918;7.092;2024-01-27T03:00:53;3.40;60.90
81842;DHT22;71284;50.918;7.092;2024-01-27T03:03:19;3.40;60.50
81842;DHT22;71284;50.918;7.092;2024-01-27T03:05:46;3.40;60.50
81842;DHT22;71284;50.918;7.092;2024-01-27T03:08:12;3.30;61.20
81842;DHT22;71284;50.918;7.092;2024-01-27T03:10:39;3.20;61.80
81842;DHT22;71284;50.918;7.092;2024-01-27T03:13:06;3.20;61.60
81842;DHT22;71284;50.918;7.092;2024-01-27T03:15:32;3.40;61.00
81842;DHT22;71284;50.918;7.092;2024-01-27T03:17:59;3.40;60.80
81842;DHT22;71284;50.918;7.092;2024-01-27T03:20:25;3.30;61.30
81842;DHT22;71284;50.918;7.092;2024-01-27T03:22:52;3.30;61.30
81842;DHT22;71284;50.918;7.092;2024-01-27T03:25:18;3.40;61.10
81842;DHT22;71284;50.918;7.092;2024-01-27T03:27:45;3.30;61.00
81842;DHT22;71284;50.918;7.092;2024-01-27T03:30:12;3.20;61.30
81842;DHT22;71284;50.918;7.092;2024-01-27T03:32:38;3.00;62.20
81842;DHT22;71284;50.918;7.092;2024-01-27T03:35:05;3.10;62.30
81842;DHT22;71284;50.918;7.092;2024-01-27T03:37:32;3.20;61.50
81842;DHT22;71284;50.918;7.092;2024-01-27T03:39:58;3.30;61.10
81842;DHT22;71284;50.918;7.092;2024-01-27T03:42:25;3.30;61.40
81842;DHT22;71284;50.918;7.092;2024-01-27T03:44:52;3.40;60.70
81842;DHT22;71284;50.918;7.092;2024-01-27T03:47:18;3.40;60.90
81842;DHT22;71284;50.918;7.092;2024-01-27T03:49:45;3.40;61.20
81842;DHT22;71284;50.918;7.092;2024-01-27T03:52:11;3.40;61.10
81842;DHT22;71284;50.918;7.092;2024-01-27T03:54:38;3.40;60.20
81842;DHT22;71284;50.918;7.092;2024-01-27T03:57:04;3.30;60.70
81842;DHT22;71284;50.918;7.092;2024-01-27T03:59:31;3.10;62.10
81842;DHT22;71284;50.918;7.092;2024-01-27T04:01:58;3.20;61.70
81842;DHT22;71284;50.918;7.092;2024-01-27T04:04:24;3.30;61.10
81842;DHT22;71284;50.918;7.092;2024-01-27T04:06:51;3.30;60.70
81842;DHT22;71284;50.918;7.092;2024-01-27T04:09:17;3.20;61.40
81842;DHT22;71284;50.918;7.092;2024-01-27T04:11:44;3.20;61.10
81842;DHT22;71284;50.918;7.092;2024-01-27T04:14:11;3.00;62.00
81842;DHT22;71284;50.918;7.092;2024-01-27T04:16:37;2.80;62.60
81842;DHT22;71284;50.918;7.092;2024-01-27T04:19:04;2.60;63.40
81842;DHT22;71284;50.918;7.092;2024-01-27T04:21:30;2.70;63.20
81842;DHT22;71284;50.918;7.092;2024-01-27T04:23:57;2.90;62.20
81842;DHT22;71284;50.918;7.092;2024-01-27T04:26:23;3.00;61.90
81842;DHT22;71284;50.918;7.092;2024-01-27T04:28:50;2.90;62.20
81842;DHT22;71284;50.918;7.092;2024-01-27T04:31:17;3.00;61.70
81842;DHT22;71284;50.918;7.092;2024-01-27T04:33:43;3.10;61.00
81842;DHT22;71284;50.918;7.092;2024-01-27T04:36:10;3.20;60.30
81842;DHT22;71284;50.918;7.092;2024-01-27T04:38:36;3.30;60.20
81842;DHT22;71284;50.918;7.092;2024-01-27T04:41:03;3.30;60.40
81842;DHT22;71284;50.918;7.092;2024-01-27T04:43:30;3.20;60.80
81842;DHT22;71284;50.918;7.092;2024-01-27T04:45:56;3.20;60.70
81842;DHT22;71284;50.918;7.092;2024-01-27T04:48:23;3.20;60.50
81842;DHT22;71284;50.918;7.092;2024-01-27T04:50:49;3.10;60.80
81842;DHT22;71284;50.918;7.092;2024-01-27T04:53:16;2.90;61.60
81842;DHT22;71284;50.918;7.092;2024-01-27T04:55:43;2.90;61.50
81842;DHT22;71284;50.918;7.092;2024-01-27T04:58:09;2.90;61.70
81842;DHT22;71284;50.918;7.092;2024-01-27T05:00:36;2.80;62.00
81842;DHT22;71284;50.918;7.092;2024-01-27T05:03:02;2.70;62.40
81842;DHT22;71284;50.918;7.092;2024-01-27T05:05:29;2.70;62.30
81842;DHT22;71284;50.918;7.092;2024-01-27T05:07:56;2.60;63.00
81842;DHT22;71284;50.918;7.092;2024-01-27T05:10:22;2.70;62.40
81842;DHT22;71284;50.918;7.092;2024-01-27T05:12:49;2.70;62.30
81842;DHT22;71284;50.918;7.092;2024-01-27T05:15:15;2.60;62.70
81842;DHT22;71284;50.918;7.092;2024-01-27T05:17:42;2.60;62.50
81842;DHT22;71284;50.918;7.092;2024-01-27T05:20:09;2.40;63.10
81842;DHT22;71284;50.918;7.092;2024-01-27T05:22:36;2.50;63.30
81842;DHT22;71284;50.918;7.092;2024-01-27T05:25:03;2.60;62.80
81842;DHT22;71284;50.918;7.092;2024-01-27T05:27:29;2.60;63.00
81842;DHT22;71284;50.918;7.092;2024-01-27T05:29:56;2.70;62.40
81842;DHT22;71284;50.918;7.092;2024-01-27T05:32:23;2.80;62.60
81842;DHT22;71284;50.918;7.092;2024-01-27T05:34:49;2.80;62.00
81842;DHT22;71284;50.918;7.092;2024-01-27T05:37:16;2.70;62.60
81842;DHT22;71284;50.918;7.092;2024-01-27T05:39:42;2.60;63.10
81842;DHT22;71284;50.918;7.092;2024-01-27T05:42:09;2.50;63.60
81842;DHT22;71284;50.918;7.092;2024-01-27T05:44:35;2.50;63.50
81842;DHT22;71284;50.918;7.092;2024-01-27T05:47:02;2.60;62.90
81842;DHT22;71284;50.918;7.092;2024-01-27T05:49:29;2.60;62.70
81842;DHT22;71284;50.918;7.092;2024-01-27T05:51:56;2.60;63.10
81842;DHT22;71284;50.918;7.092;2024-01-27T05:54:23;2.70;62.40
81842;DHT22;71284;50.918;7.092;2024-01-27T05:56:49;2.60;62.90
81842;DHT22;71284;50.918;7.092;2024-01-27T05:59:16;2.50;63.40
81842;DHT22;71284;50.918;7.092;2024-01-27T06:01:42;2.40;63.60
81842;DHT22;71284;50.918;7.092;2024-01-27T06:04:09;2.50;63.20
81842;DHT22;71284;50.918;7.092;2024-01-27T06:06:39;2.50;63.10
81842;DHT22;71284;50.918;7.092;2024-01-27T06:09:06;2.50;63.10
81842;DHT22;71284;50.918;7.092;2024-01-27T06:11:32;2.70;62.40
81842;DHT22;71284;50.918;7.092;2024-01-27T06:13:59;2.70;62.60
81842;DHT22;71284;50.918;7.092;2024-01-27T06:16:26;2.70;62.90
81842;DHT22;71284;50.918;7.092;2024-01-27T06:18:52;2.80;62.10
81842;DHT22;71284;50.918;7.092;2024-01-27T06:21:19;2.80;61.90
81842;DHT22;71284;50.918;7.092;2024-01-27T06:23:45;3.00;61.70
81842;DHT22;71284;50.918;7.092;2024-01-27T06:26:12;3.00;61.50
81842;DHT22;71284;50.918;7.092;2024-01-27T06:28:39;2.90;62.10
81842;DHT22;71284;50.918;7.092;2024-01-27T06:31:05;3.00;61.40
81842;DHT22;71284;50.918;7.092;2024-01-27T06:33:32;2.80;61.90
81842;DHT22;71284;50.918;7.092;2024-01-27T06:35:58;2.90;62.30
81842;DHT22;71284;50.918;7.092;2024-01-27T06:38:26;2.90;62.10
81842;DHT22;71284;50.918;7.092;2024-01-27T06:40:51;2.80;61.80
81842;DHT22;71284;50.918;7.092;2024-01-27T06:43:19;2.80;62.30
81842;DHT22;71284;50.918;7.092;2024-01-27T06:45:45;2.90;62.00
81842;DHT22;71284;50.918;7.092;2024-01-27T06:48:11;3.00;61.50
81842;DHT22;71284;50.918;7.092;2024-01-27T06:50:38;3.10;61.20
81842;DHT22;71284;50.918;7.092;2024-01-27T06:53:05;2.90;61.90
81842;DHT22;71284;50.918;7.092;2024-01-27T06:55:32;2.90;61.80
81842;DHT22;71284;50.918;7.092;2024-01-27T06:57:58;2.90;61.80
81842;DHT22;71284;50.918;7.092;2024-01-27T07:00:25;2.70;62.50
81842;DHT22;71284;50.918;7.092;2024-01-27T07:02:51;2.80;62.40
81842;DHT22;71284;50.918;7.092;2024-01-27T07:05:18;2.90;61.90
81842;DHT22;71284;50.918;7.092;2024-01-27T07:07:45;3.00;61.90
81842;DHT22;71284;50.918;7.092;2024-01-27T07:10:12;3.10;61.20
81842;DHT22;71284;50.918;7.092;2024-01-27T07:12:38;3.10;61.30
81842;DHT22;71284;50.918;7.092;2024-01-27T07:15:06;3.00;61.30
81842;DHT22;71284;50.918;7.092;2024-01-27T07:17:32;3.10;61.70
81842;DHT22;71284;50.918;7.092;2024-01-27T07:19:59;3.10;61.20
81842;DHT22;71284;50.918;7.092;2024-01-27T07:22:25;3.10;61.40
81842;DHT22;71284;50.918;7.092;2024-01-27T07:24:52;3.10;61.60
81842;DHT22;71284;50.918;7.092;2024-01-27T07:27:19;3.00;62.00
81842;DHT22;71284;50.918;7.092;2024-01-27T07:29:45;3.10;61.70
81842;DHT22;71284;50.918;7.092;2024-01-27T07:32:12;3.20;61.00
81842;DHT22;71284;50.918;7.092;2024-01-27T07:34:41;3.30;61.30
81842;DHT22;71284;50.918;7.092;2024-01-27T07:37:07;3.30;61.20
81842;DHT22;71284;50.918;7.092;2024-01-27T07:39:34;3.40;61.00
81842;DHT22;71284;50.918;7.092;2024-01-27T07:42:00;3.40;61.10
81842;DHT22;71284;50.918;7.092;2024-01-27T07:44:27;3.40;61.10
81842;DHT22;71284;50.918;7.092;2024-01-27T07:46:54;3.40;61.40
81842;DHT22;71284;50.918;7.092;2024-01-27T07:49:20;3.50;61.60
81842;DHT22;71284;50.918;7.092;2024-01-27T07:51:47;3.60;61.10
81842;DHT22;71284;50.918;7.092;2024-01-27T07:54:13;3.70;61.00
81842;DHT22;71284;50.918;7.092;2024-01-27T07:56:40;3.80;60.30
81842;DHT22;71284;50.918;7.092;2024-01-27T07:59:07;4.00;59.60
81842;DHT22;71284;50.918;7.092;2024-01-27T08:01:33;4.00;59.20
81842;DHT22;71284;50.918;7.092;2024-01-27T08:04:00;4.00;59.00
81842;DHT22;71284;50.918;7.092;2024-01-27T08:06:28;4.00;59.40
81842;DHT22;71284;50.918;7.092;2024-01-27T08:08:54;4.00;59.80
81842;DHT22;71284;50.918;7.092;2024-01-27T08:11:20;4.00;59.60
81842;DHT22;71284;50.918;7.092;2024-01-27T08:13:47;4.10;59.60
81842;DHT22;71284;50.918;7.092;2024-01-27T08:16:14;4.20;59.50
81842;DHT22;71284;50.918;7.092;2024-01-27T08:18:41;4.30;59.20
81842;DHT22;71284;50.918;7.092;2024-01-27T08:21:07;4.40;59.20
81842;DHT22;71284;50.918;7.092;2024-01-27T08:23:34;4.30;59.60
81842;DHT22;71284;50.918;7.092;2024-01-27T08:26:00;4.30;59.50
81842;DHT22;71284;50.918;7.092;2024-01-27T08:28:27;4.50;59.40
81842;DHT22;71284;50.918;7.092;2024-01-27T08:30:54;4.60;58.80
81842;DHT22;71284;50.918;7.092;2024-01-27T08:33:20;4.80;58.50
81842;DHT22;71284;50.918;7.092;2024-01-27T08:35:47;4.90;58.10
81842;DHT22;71284;50.918;7.092;2024-01-27T08:38:14;4.90;58.60
81842;DHT22;71284;50.918;7.092;2024-01-27T08:40:40;5.00;58.50
81842;DHT22;71284;50.918;7.092;2024-01-27T08:43:07;5.10;57.70
81842;DHT22;71284;50.918;7.092;2024-01-27T08:45:33;5.20;57.90
81842;DHT22;71284;50.918;7.092;2024-01-27T08:48:00;5.30;57.90
81842;DHT22;71284;50.918;7.092;2024-01-27T08:50:26;5.40;57.40
81842;DHT22;71284;50.918;7.092;2024-01-27T08:52:53;5.60;56.80
81842;DHT22;71284;50.918;7.092;2024-01-27T08:55:19;5.60;57.00
81842;DHT22;71284;50.918;7.092;2024-01-27T08:57:47;5.70;56.90
81842;DHT22;71284;50.918;7.092;2024-01-27T09:00:14;5.60;57.20
81842;DHT22;71284;50.918;7.092;2024-01-27T09:02:40;5.80;57.40
81842;DHT22;71284;50.918;7.092;2024-01-27T09:05:07;6.00;57.00
81842;DHT22;71284;50.918;7.092;2024-01-27T09:07:34;6.10;57.00
81842;DHT22;71284;50.918;7.092;2024-01-27T09:10:01;6.20;56.30
81842;DHT22;71284;50.918;7.092;2024-01-27T09:12:28;6.20;56.30
81842;DHT22;71284;50.918;7.092;2024-01-27T09:14:54;6.20;56.40
81842;DHT22;71284;50.918;7.092;2024-01-27T09:17:21;6.40;56.10
81842;DHT22;71284;50.918;7.092;2024-01-27T09:19:47;6.50;56.30
81842;DHT22;71284;50.918;7.092;2024-01-27T09:22:14;6.70;55.40
81842;DHT22;71284;50.918;7.092;2024-01-27T09:24:40;6.80;54.50
81842;DHT22;71284;50.918;7.092;2024-01-27T09:27:07;6.90;55.00
81842;DHT22;71284;50.918;7.092;2024-01-27T09:29:34;7.60;53.50
81842;DHT22;71284;50.918;7.092;2024-01-27T09:32:00;8.30;51.10
81842;DHT22;71284;50.918;7.092;2024-01-27T09:34:27;8.50;50.10
81842;DHT22;71284;50.918;7.092;2024-01-27T09:36:54;8.40;50.60
81842;DHT22;71284;50.918;7.092;2024-01-27T09:39:20;8.60;49.60
81842;DHT22;71284;50.918;7.092;2024-01-27T09:41:47;8.40;49.60
81842;DHT22;71284;50.918;7.092;2024-01-27T09:44:13;8.40;49.80
81842;DHT22;71284;50.918;7.092;2024-01-27T09:46:41;8.40;50.40
81842;DHT22;71284;50.918;7.092;2024-01-27T09:49:07;8.50;50.20
81842;DHT22;71284;50.918;7.092;2024-01-27T09:51:34;9.00;49.70
81842;DHT22;71284;50.918;7.092;2024-01-27T09:54:01;9.40;47.40
81842;DHT22;71284;50.918;7.092;2024-01-27T09:56:27;9.20;47.50
81842;DHT22;71284;50.918;7.092;2024-01-27T09:58:54;9.00;48.70
81842;DHT22;71284;50.918;7.092;2024-01-27T10:01:20;9.00;47.90
81842;DHT22;71284;50.918;7.092;2024-01-27T10:03:47;9.40;47.90
81842;DHT22;71284;50.918;7.092;2024-01-27T10:06:14;9.60;46.80
81842;DHT22;71284;50.918;7.092;2024-01-27T10:08:41;9.90;45.30
81842;DHT22;71284;50.918;7.092;2024-01-27T10:11:08;10.60;45.10
81842;DHT22;71284;50.918;7.092;2024-01-27T10:13:35;11.00;44.20
81842;DHT22;71284;50.918;7.092;2024-01-27T10:16:04;10.60;43.80
81842;DHT22;71284;50.918;7.092;2024-01-27T10:18:30;10.50;44.20
81842;DHT22;71284;50.918;7.092;2024-01-27T10:20:56;11.40;43.80
81842;DHT22;71284;50.918;7.092;2024-01-27T10:23:23;12.20;41.20
81842;DHT22;71284;50.918;7.092;2024-01-27T10:25:49;12.70;39.90
81842;DHT22;71284;50.918;7.092;2024-01-27T10:28:16;12.20;40.40
81842;DHT22;71284;50.918;7.092;2024-01-27T10:30:43;11.50;42.60
81842;DHT22;71284;50.918;7.092;2024-01-27T10:33:09;11.80;42.20
81842;DHT22;71284;50.918;7.092;2024-01-27T10:35:36;12.60;40.60
81842;DHT22;71284;50.918;7.092;2024-01-27T10:38:02;13.00;38.90
81842;DHT22;71284;50.918;7.092;2024-01-27T10:40:29;13.50;38.10
81842;DHT22;71284;50.918;7.092;2024-01-27T10:43:03;13.70;37.50
81842;DHT22;71284;50.918;7.092;2024-01-27T10:45:34;13.60;37.80
81842;DHT22;71284;50.918;7.092;2024-01-27T10:48:00;14.00;37.60
81842;DHT22;71284;50.918;7.092;2024-01-27T10:50:27;14.00;37.10
81842;DHT22;71284;50.918;7.092;2024-01-27T10:52:54;14.50;37.70
81842;DHT22;71284;50.918;7.092;2024-01-27T10:55:20;15.80;35.00
81842;DHT22;71284;50.918;7.092;2024-01-27T10:57:46;16.10;33.80
81842;DHT22;71284;50.918;7.092;2024-01-27T11:00:13;14.80;35.70
81842;DHT22;71284;50.918;7.092;2024-01-27T11:02:40;14.40;36.60
81842;DHT22;71284;50.918;7.092;2024-01-27T11:05:06;14.10;37.00
81842;DHT22;71284;50.918;7.092;2024-01-27T11:07:34;13.10;38.60
81842;DHT22;71284;50.918;7.092;2024-01-27T11:10:00;12.10;40.00
81842;DHT22;71284;50.918;7.092;2024-01-27T11:12:26;11.80;41.40
81842;DHT22;71284;50.918;7.092;2024-01-27T11:14:53;11.50;41.80
81842;DHT22;71284;50.918;7.092;2024-01-27T11:17:20;11.10;43.00
81842;DHT22;71284;50.918;7.092;2024-01-27T11:19:47;10.80;44.20
81842;DHT22;71284;50.918;7.092;2024-01-27T11:22:24;10.70;43.60
81842;DHT22;71284;50.918;7.092;2024-01-27T11:24:50;10.40;43.90
81842;DHT22;71284;50.918;7.092;2024-01-27T11:27:17;10.50;44.10
81842;DHT22;71284;50.918;7.092;2024-01-27T11:29:47;10.80;43.20
81842;DHT22;71284;50.918;7.092;2024-01-27T11:32:13;11.00;42.80
81842;DHT22;71284;50.918;7.092;2024-01-27T11:34:42;11.00;43.60
81842;DHT22;71284;50.918;7.092;2024-01-27T11:37:13;11.40;42.20
81842;DHT22;71284;50.918;7.092;2024-01-27T11:39:38;12.30;40.60
81842;DHT22;71284;50.918;7.092;2024-01-27T11:42:05;13.20;39.10
81842;DHT22;71284;50.918;7.092;2024-01-27T11:44:35;14.00;37.50
81842;DHT22;71284;50.918;7.092;2024-01-27T11:47:01;15.60;35.30
81842;DHT22;71284;50.918;7.092;2024-01-27T11:49:28;16.30;33.40
81842;DHT22;71284;50.918;7.092;2024-01-27T11:51:54;17.30;31.90
81842;DHT22;71284;50.918;7.092;2024-01-27T11:54:21;17.60;31.80
81842;DHT22;71284;50.918;7.092;2024-01-27T11:56:47;17.40;31.20
81842;DHT22;71284;50.918;7.092;2024-01-27T11:59:14;16.70;31.50
81842;DHT22;71284;50.918;7.092;2024-01-27T12:01:40;16.10;33.00
81842;DHT22;71284;50.918;7.092;2024-01-27T12:04:07;15.40;33.40
81842;DHT22;71284;50.918;7.092;2024-01-27T12:06:34;15.00;33.90
81842;DHT22;71284;50.918;7.092;2024-01-27T12:09:00;13.90;36.00
81842;DHT22;71284;50.918;7.092;2024-01-27T12:11:27;13.50;36.50
81842;DHT22;71284;50.918;7.092;2024-01-27T12:13:56;13.30;37.20
81842;DHT22;71284;50.918;7.092;2024-01-27T12:16:22;13.10;37.50
81842;DHT22;71284;50.918;7.092;2024-01-27T12:18:51;13.20;37.30
81842;DHT22;71284;50.918;7.092;2024-01-27T12:21:18;13.00;39.30
81842;DHT22;71284;50.918;7.092;2024-01-27T12:23:56;13.10;38.00
81842;DHT22;71284;50.918;7.092;2024-01-27T12:26:24;12.90;38.70
81842;DHT22;71284;50.918;7.092;2024-01-27T12:28:50;13.20;38.30
81842;DHT22;71284;50.918;7.092;2024-01-27T12:31:17;13.50;37.80
81842;DHT22;71284;50.918;7.092;2024-01-27T12:33:48;13.50;37.50
81842;DHT22;71284;50.918;7.092;2024-01-27T12:36:14;13.70;36.80
81842;DHT22;71284;50.918;7.092;2024-01-27T12:38:41;14.00;36.70
81842;DHT22;71284;50.918;7.092;2024-01-27T12:41:07;14.10;35.80
81842;DHT22;71284;50.918;7.092;2024-01-27T12:43:34;14.10;35.70
81842;DHT22;71284;50.918;7.092;2024-01-27T12:46:01;14.00;35.10
81842;DHT22;71284;50.918;7.092;2024-01-27T12:48:27;14.00;35.70
81842;DHT22;71284;50.918;7.092;2024-01-27T12:50:54;14.10;35.80
81842;DHT22;71284;50.918;7.092;2024-01-27T12:53:20;13.90;37.30
81842;DHT22;71284;50.918;7.092;2024-01-27T12:55:47;14.20;36.20
81842;DHT22;71284;50.918;7.092;2024-01-27T12:58:14;14.70;34.70
81842;DHT22;71284;50.918;7.092;2024-01-27T13:00:40;15.10;34.00
81842;DHT22;71284;50.918;7.092;2024-01-27T13:03:07;15.90;32.80
81842;DHT22;71284;50.918;7.092;2024-01-27T13:05:33;16.70;32.90
81842;DHT22;71284;50.918;7.092;2024-01-27T13:08:00;18.00;31.10
81842;DHT22;71284;50.918;7.092;2024-01-27T13:10:26;19.30;30.40
81842;DHT22;71284;50.918;7.092;2024-01-27T13:12:53;19.20;27.60
81842;DHT22;71284;50.918;7.092;2024-01-27T13:15:20;19.60;28.20
81842;DHT22;71284;50.918;7.092;2024-01-27T13:17:46;20.90;27.60
81842;DHT22;71284;50.918;7.092;2024-01-27T13:20:13;20.80;25.10
81842;DHT22;71284;50.918;7.092;2024-01-27T13:22:39;20.20;26.50
81842;DHT22;71284;50.918;7.092;2024-01-27T13:25:07;19.40;27.10
81842;DHT22;71284;50.918;7.092;2024-01-27T13:27:33;19.40;28.10
81842;DHT22;71284;50.918;7.092;2024-01-27T13:30:00;19.60;26.30
81842;DHT22;71284;50.918;7.092;2024-01-27T13:32:27;19.50;27.60
81842;DHT22;71284;50.918;7.092;2024-01-27T13:34:53;20.40;26.00
81842;DHT22;71284;50.918;7.092;2024-01-27T13:37:20;20.00;25.20
81842;DHT22;71284;50.918;7.092;2024-01-27T13:39:47;19.30;28.60
81842;DHT22;71284;50.918;7.092;2024-01-27T13:42:14;20.30;27.90
81842;DHT22;71284;50.918;7.092;2024-01-27T13:44:40;20.60;26.70
81842;DHT22;71284;50.918;7.092;2024-01-27T13:47:07;20.30;27.10
81842;DHT22;71284;50.918;7.092;2024-01-27T13:49:34;19.40;27.70
81842;DHT22;71284;50.918;7.092;2024-01-27T13:52:00;18.90;27.70
81842;DHT22;71284;50.918;7.092;2024-01-27T13:54:27;18.60;28.70
81842;DHT22;71284;50.918;7.092;2024-01-27T13:56:54;18.90;27.10
81842;DHT22;71284;50.918;7.092;2024-01-27T13:59:20;19.70;26.30
81842;DHT22;71284;50.918;7.092;2024-01-27T14:01:47;20.40;24.30
81842;DHT22;71284;50.918;7.092;2024-01-27T14:04:14;20.00;23.90
81842;DHT22;71284;50.918;7.092;2024-01-27T14:06:40;19.70;25.50
81842;DHT22;71284;50.918;7.092;2024-01-27T14:09:07;19.60;25.00
81842;DHT22;71284;50.918;7.092;2024-01-27T14:11:33;19.80;26.80
81842;DHT22;71284;50.918;7.092;2024-01-27T14:14:00;19.80;24.70
81842;DHT22;71284;50.918;7.092;2024-01-27T14:16:27;19.10;24.90
81842;DHT22;71284;50.918;7.092;2024-01-27T14:18:53;18.50;27.40
81842;DHT22;71284;50.918;7.092;2024-01-27T14:21:20;17.90;27.80
81842;DHT22;71284;50.918;7.092;2024-01-27T14:23:46;17.00;29.10
81842;DHT22;71284;50.918;7.092;2024-01-27T14:26:13;16.10;29.70
81842;DHT22;71284;50.918;7.092;2024-01-27T14:28:41;15.60;29.80
81842;DHT22;71284;50.918;7.092;2024-01-27T14:31:07;15.10;30.20
81842;DHT22;71284;50.918;7.092;2024-01-27T14:33:34;14.70;31.00
81842;DHT22;71284;50.918;7.092;2024-01-27T14:36:00;14.30;32.10
81842;DHT22;71284;50.918;7.092;2024-01-27T14:38:27;14.10;35.30
81842;DHT22;71284;50.918;7.092;2024-01-27T14:40:53;13.80;34.00
81842;DHT22;71284;50.918;7.092;2024-01-27T14:43:20;13.60;33.60
81842;DHT22;71284;50.918;7.092;2024-01-27T14:45:47;13.40;34.20
81842;DHT22;71284;50.918;7.092;2024-01-27T14:48:13;13.10;35.30
81842;DHT22;71284;50.918;7.092;2024-01-27T14:50:40;12.90;34.90
81842;DHT22;71284;50.918;7.092;2024-01-27T14:53:06;12.80;36.60
81842;DHT22;71284;50.918;7.092;2024-01-27T14:55:33;12.70;35.90
81842;DHT22;71284;50.918;7.092;2024-01-27T14:58:00;12.70;36.10
81842;DHT22;71284;50.918;7.092;2024-01-27T15:00:26;12.40;35.30
81842;DHT22;71284;50.918;7.092;2024-01-27T15:02:53;12.50;37.60
81842;DHT22;71284;50.918;7.092;2024-01-27T15:05:19;12.30;35.40
81842;DHT22;71284;50.918;7.092;2024-01-27T15:07:46;12.10;36.60
81842;DHT22;71284;50.918;7.092;2024-01-27T15:10:12;12.10;35.40
81842;DHT22;71284;50.918;7.092;2024-01-27T15:12:39;12.20;34.80
81842;DHT22;71284;50.918;7.092;2024-01-27T15:15:07;12.10;37.90
81842;DHT22;71284;50.918;7.092;2024-01-27T15:17:33;12.20;37.50
81842;DHT22;71284;50.918;7.092;2024-01-27T15:20:00;12.30;37.60
81842;DHT22;71284;50.918;7.092;2024-01-27T15:22:27;12.20;36.80
81842;DHT22;71284;50.918;7.092;2024-01-27T15:24:53;12.10;38.70
81842;DHT22;71284;50.918;7.092;2024-01-27T15:27:20;12.10;35.70
81842;DHT22;71284;50.918;7.092;2024-01-27T15:29:46;12.10;36.10
81842;DHT22;71284;50.918;7.092;2024-01-27T15:32:13;12.10;42.80
81842;DHT22;71284;50.918;7.092;2024-01-27T15:34:40;12.00;41.40
81842;DHT22;71284;50.918;7.092;2024-01-27T15:37:06;11.80;38.10